sensor_id;sensor_type;location;lat;lon;timestamp;pressure;altitude;pressure_sealevel;temperature;humidity
25560;BME280;13450;49.374;8.584;2023-04-01T00:00:52;99037.38;;;9.24;100.00
25560;BME280;13450;49.374;8.584;2023-04-01T00:03:18;99033.09;;;9.23;100.00
25560;BME280;13450;49.374;8.584;2023-04-01T00:05:44;99027.75;;;9.23;100.00
25560;BME280;13450;49.374;8.584;2023-04-01T00:08:10;99032.50;;;9.21;100.00
25560;BME280;13450;49.374;8.584;2023-04-01T00:10:37;99021.19;;;9.19;100.00
25560;BME280;13450;49.374;8.584;2023-04-01T00:13:03;99033.50;;;9.20;100.00
25560;BME280;13450;49.374;8.584;2023-04-01T00:15:29;99024.47;;;9.21;100.00
25560;BME280;13450;49.374;8.584;2023-04-01T00:17:54;99043.16;;;9.21;100.00
25560;BME280;13450;49.374;8.584;2023-04-01T00:20:20;99022.81;;;9.20;100.00
25560;BME280;13450;49.374;8.584;2023-04-01T00:22:45;99025.50;;;9.20;100.00
25560;BME280;13450;49.374;8.584;2023-04-01T00:25:10;99026.53;;;9.19;100.00
25560;BME280;13450;49.374;8.584;2023-04-01T00:27:36;99023.06;;;9.19;100.00
25560;BME280;13450;49.374;8.584;2023-04-01T00:30:02;99028.16;;;9.20;100.00
25560;BME280;13450;49.374;8.584;2023-04-01T00:32:27;99028.16;;;9.20;100.00
25560;BME280;13450;49.374;8.584;2023-04-01T00:34:53;99035.56;;;9.18;100.00
25560;BME280;13450;49.374;8.584;2023-04-01T00:37:21;99021.19;;;9.19;100.00
25560;BME280;13450;49.374;8.584;2023-04-01T00:39:48;99033.94;;;9.17;100.00
25560;BME280;13450;49.374;8.584;2023-04-01T00:42:15;99030.63;;;9.15;100.00
25560;BME280;13450;49.374;8.584;2023-04-01T00:44:47;99025.31;;;9.15;100.00
25560;BME280;13450;49.374;8.584;2023-04-01T00:47:13;99035.97;;;9.15;100.00
25560;BME280;13450;49.374;8.584;2023-04-01T00:49:40;99034.13;;;9.15;100.00
25560;BME280;13450;49.374;8.584;2023-04-01T00:52:08;99031.47;;;9.15;100.00
25560;BME280;13450;49.374;8.584;2023-04-01T00:54:36;99024.91;;;9.18;100.00
25560;BME280;13450;49.374;8.584;2023-04-01T00:57:09;99021.19;;;9.19;100.00
25560;BME280;13450;49.374;8.584;2023-04-01T00:59:46;99012.59;;;9.17;100.00
25560;BME280;13450;49.374;8.584;2023-04-01T01:02:14;99027.34;;;9.20;100.00
25560;BME280;13450;49.374;8.584;2023-04-01T01:04:40;99017.91;;;9.17;100.00
25560;BME280;13450;49.374;8.584;2023-04-01T01:07:20;99012.13;;;9.20;100.00
25560;BME280;13450;49.374;8.584;2023-04-01T01:12:43;99015.84;;;9.19;100.00
25560;BME280;13450;49.374;8.584;2023-04-01T01:15:21;99006.81;;;9.20;100.00
25560;BME280;13450;49.374;8.584;2023-04-01T01:26:37;98996.13;;;9.20;100.00
25560;BME280;13450;49.374;8.584;2023-04-01T01:37:19;98996.34;;;9.25;100.00
25560;BME280;13450;49.374;8.584;2023-04-01T01:39:55;98996.34;;;9.25;100.00
25560;BME280;13450;49.374;8.584;2023-04-01T01:42:22;98991.59;;;9.27;100.00
25560;BME280;13450;49.374;8.584;2023-04-01T01:44:50;98982.56;;;9.28;100.00
25560;BME280;13450;49.374;8.584;2023-04-01T01:47:19;98976.19;;;9.29;100.00
25560;BME280;13450;49.374;8.584;2023-04-01T01:49:46;98982.56;;;9.28;100.00
25560;BME280;13450;49.374;8.584;2023-04-01T01:52:12;98987.47;;;9.32;100.00
25560;BME280;13450;49.374;8.584;2023-04-01T01:54:52;98989.09;;;9.33;100.00
25560;BME280;13450;49.374;8.584;2023-04-01T01:57:22;98980.06;;;9.34;100.00
25560;BME280;13450;49.374;8.584;2023-04-01T01:59:49;98987.06;;;9.35;100.00
25560;BME280;13450;49.374;8.584;2023-04-01T02:02:18;98984.38;;;9.35;100.00
25560;BME280;13450;49.374;8.584;2023-04-01T02:04:44;98991.16;;;9.37;100.00
25560;BME280;13450;49.374;8.584;2023-04-01T02:07:17;98982.94;;;9.39;100.00
25560;BME280;13450;49.374;8.584;2023-04-01T02:09:46;98979.22;;;9.40;100.00
25560;BME280;13450;49.374;8.584;2023-04-01T02:12:14;98977.16;;;9.42;100.00
25560;BME280;13450;49.374;8.584;2023-04-01T02:14:43;98987.63;;;9.44;100.00
25560;BME280;13450;49.374;8.584;2023-04-01T02:17:14;98983.50;;;9.48;100.00
25560;BME280;13450;49.374;8.584;2023-04-01T02:19:50;98978.78;;;9.50;100.00
25560;BME280;13450;49.374;8.584;2023-04-01T02:25:41;98974.22;;;9.50;100.00
25560;BME280;13450;49.374;8.584;2023-04-01T02:28:09;98992.94;;;9.50;100.00
25560;BME280;13450;49.374;8.584;2023-04-01T02:30:37;98991.88;;;9.51;100.00
25560;BME280;13450;49.374;8.584;2023-04-01T02:33:05;98999.31;;;9.49;100.00
25560;BME280;13450;49.374;8.584;2023-04-01T02:35:33;98988.25;;;9.46;100.00
25560;BME280;13450;49.374;8.584;2023-04-01T02:38:00;98989.03;;;9.46;100.00
25560;BME280;13450;49.374;8.584;2023-04-01T02:40:26;98988.25;;;9.46;100.00
25560;BME280;13450;49.374;8.584;2023-04-01T02:42:51;98995.63;;;9.44;100.00
25560;BME280;13450;49.374;8.584;2023-04-01T02:45:19;98986.81;;;9.43;100.00
25560;BME280;13450;49.374;8.584;2023-04-01T02:47:44;98992.75;;;9.45;100.00
25560;BME280;13450;49.374;8.584;2023-04-01T02:50:09;98993.78;;;9.44;100.00
25560;BME280;13450;49.374;8.584;2023-04-01T02:52:37;98990.66;;;9.47;100.00
25560;BME280;13450;49.374;8.584;2023-04-01T02:55:03;98992.75;;;9.45;100.00
25560;BME280;13450;49.374;8.584;2023-04-01T02:57:29;98994.19;;;9.48;100.00
25560;BME280;13450;49.374;8.584;2023-04-01T02:59:55;98994.38;;;9.46;100.00
25560;BME280;13450;49.374;8.584;2023-04-01T03:02:20;98996.00;;;9.47;100.00
25560;BME280;13450;49.374;8.584;2023-04-01T03:04:48;98997.25;;;9.45;100.00
25560;BME280;13450;49.374;8.584;2023-04-01T03:07:13;98992.75;;;9.45;100.00
25560;BME280;13450;49.374;8.584;2023-04-01T03:09:39;98995.84;;;9.42;100.00
25560;BME280;13450;49.374;8.584;2023-04-01T03:12:05;98995.63;;;9.44;100.00
25560;BME280;13450;49.374;8.584;2023-04-01T03:14:30;98992.75;;;9.45;100.00
25560;BME280;13450;49.374;8.584;2023-04-01T03:16:56;98990.09;;;9.45;100.00
25560;BME280;13450;49.374;8.584;2023-04-01T03:19:21;98987.41;;;9.45;100.00
25560;BME280;13450;49.374;8.584;2023-04-01T03:21:49;98995.63;;;9.44;100.00
25560;BME280;13450;49.374;8.584;2023-04-01T03:24:14;98999.34;;;9.42;100.00
25560;BME280;13450;49.374;8.584;2023-04-01T03:26:42;98994.59;;;9.45;100.00
25560;BME280;13450;49.374;8.584;2023-04-01T03:29:07;98988.44;;;9.44;100.00
25560;BME280;13450;49.374;8.584;2023-04-01T03:31:32;98992.97;;;9.44;100.00
25560;BME280;13450;49.374;8.584;2023-04-01T03:33:58;98987.81;;;9.42;100.00
25560;BME280;13450;49.374;8.584;2023-04-01T03:36:23;98991.13;;;9.44;100.00
25560;BME280;13450;49.374;8.584;2023-04-01T03:38:48;99016.78;;;9.45;100.00
25560;BME280;13450;49.374;8.584;2023-04-01T03:41:15;98991.28;;;9.49;100.00
25560;BME280;13450;49.374;8.584;2023-04-01T03:43:44;98990.66;;;9.47;100.00
25560;BME280;13450;49.374;8.584;2023-04-01T03:46:09;98994.38;;;9.46;100.00
25560;BME280;13450;49.374;8.584;2023-04-01T03:48:36;98986.38;;;9.46;100.00
25560;BME280;13450;49.374;8.584;2023-04-01T03:51:06;98984.75;;;9.45;100.00
25560;BME280;13450;49.374;8.584;2023-04-01T03:53:32;98984.16;;;9.43;100.00
25560;BME280;13450;49.374;8.584;2023-04-01T03:55:57;98992.16;;;9.43;100.00
25560;BME280;13450;49.374;8.584;2023-04-01T03:58:22;99000.97;;;9.44;100.00
25560;BME280;13450;49.374;8.584;2023-04-01T04:00:47;99000.75;;;9.45;100.00
25560;BME280;13450;49.374;8.584;2023-04-01T04:03:13;98997.25;;;9.45;100.00
25560;BME280;13450;49.374;8.584;2023-04-01T04:05:46;98994.59;;;9.45;100.00
25560;BME280;13450;49.374;8.584;2023-04-01T04:08:16;98996.47;;;9.44;100.00
25560;BME280;13450;49.374;8.584;2023-04-01T04:10:43;98997.50;;;9.43;100.00
25560;BME280;13450;49.374;8.584;2023-04-01T04:13:08;98989.50;;;9.43;100.00
25560;BME280;13450;49.374;8.584;2023-04-01T04:15:34;98994.22;;;9.41;100.00
25560;BME280;13450;49.374;8.584;2023-04-01T04:17:59;98984.97;;;9.37;100.00
25560;BME280;13450;49.374;8.584;2023-04-01T04:20:27;98994.22;;;9.34;100.00
25560;BME280;13450;49.374;8.584;2023-04-01T04:22:52;98989.78;;;9.21;100.00
25560;BME280;13450;49.374;8.584;2023-04-01T04:25:18;98998.22;;;9.18;100.00
25560;BME280;13450;49.374;8.584;2023-04-01T04:27:43;98996.81;;;9.09;100.00
25560;BME280;13450;49.374;8.584;2023-04-01T04:30:09;98994.78;;;8.97;100.00
25560;BME280;13450;49.374;8.584;2023-04-01T04:32:34;98985.53;;;8.93;100.00
25560;BME280;13450;49.374;8.584;2023-04-01T04:35:02;98990.09;;;8.86;100.00
25560;BME280;13450;49.374;8.584;2023-04-01T04:37:30;98989.06;;;8.80;100.00
25560;BME280;13450;49.374;8.584;2023-04-01T04:39:55;98984.38;;;8.75;100.00
25560;BME280;13450;49.374;8.584;2023-04-01T04:42:23;98986.84;;;8.70;100.00
25560;BME280;13450;49.374;8.584;2023-04-01T04:44:48;98986.84;;;8.63;100.00
25560;BME280;13450;49.374;8.584;2023-04-01T04:47:13;98984.63;;;8.54;100.00
25560;BME280;13450;49.374;8.584;2023-04-01T04:49:39;98975.78;;;8.53;100.00
25560;BME280;13450;49.374;8.584;2023-04-01T04:52:04;98977.22;;;8.49;100.00
25560;BME280;13450;49.374;8.584;2023-04-01T04:54:30;98990.53;;;8.49;100.00
25560;BME280;13450;49.374;8.584;2023-04-01T04:56:55;98980.06;;;8.47;100.00
25560;BME280;13450;49.374;8.584;2023-04-01T04:59:21;98983.16;;;8.44;100.00
25560;BME280;13450;49.374;8.584;2023-04-01T05:01:46;98974.94;;;8.46;100.00
25560;BME280;13450;49.374;8.584;2023-04-01T05:04:11;98978.63;;;8.45;100.00
25560;BME280;13450;49.374;8.584;2023-04-01T05:06:36;98973.31;;;8.45;100.00
25560;BME280;13450;49.374;8.584;2023-04-01T05:09:02;98968.81;;;8.45;100.00
25560;BME280;13450;49.374;8.584;2023-04-01T05:11:27;98966.34;;;8.44;100.00
25560;BME280;13450;49.374;8.584;2023-04-01T05:13:52;98988.50;;;8.44;100.00
25560;BME280;13450;49.374;8.584;2023-04-01T05:16:19;98978.44;;;8.46;100.00
25560;BME280;13450;49.374;8.584;2023-04-01T05:18:46;98973.75;;;8.48;100.00
25560;BME280;13450;49.374;8.584;2023-04-01T05:21:12;98976.16;;;8.50;100.00
25560;BME280;13450;49.374;8.584;2023-04-01T05:23:38;98970.63;;;8.51;100.00
25560;BME280;13450;49.374;8.584;2023-04-01T05:26:05;98972.94;;;8.55;100.00
25560;BME280;13450;49.374;8.584;2023-04-01T05:28:30;98975.38;;;8.56;100.00
25560;BME280;13450;49.374;8.584;2023-04-01T05:30:58;98973.75;;;8.62;100.00
25560;BME280;13450;49.374;8.584;2023-04-01T05:33:24;98970.03;;;8.63;100.00
25560;BME280;13450;49.374;8.584;2023-04-01T05:35:49;98971.69;;;8.64;100.00
25560;BME280;13450;49.374;8.584;2023-04-01T05:38:14;98973.09;;;8.67;100.00
25560;BME280;13450;49.374;8.584;2023-04-01T05:40:40;98978.25;;;8.68;100.00
25560;BME280;13450;49.374;8.584;2023-04-01T05:43:05;98977.00;;;8.71;100.00
25560;BME280;13450;49.374;8.584;2023-04-01T05:45:30;98973.09;;;8.73;100.00
25560;BME280;13450;49.374;8.584;2023-04-01T05:47:56;98977.38;;;8.74;100.00
25560;BME280;13450;49.374;8.584;2023-04-01T05:50:21;98976.97;;;8.77;100.00
25560;BME280;13450;49.374;8.584;2023-04-01T05:52:46;98966.09;;;8.79;100.00
25560;BME280;13450;49.374;8.584;2023-04-01T05:55:12;98975.13;;;8.85;100.00
25560;BME280;13450;49.374;8.584;2023-04-01T05:57:37;98978.59;;;8.85;100.00
25560;BME280;13450;49.374;8.584;2023-04-01T06:00:03;98964.66;;;8.90;100.00
25560;BME280;13450;49.374;8.584;2023-04-01T06:02:32;98969.53;;;8.93;100.00
25560;BME280;13450;49.374;8.584;2023-04-01T06:05:30;98964.00;;;8.95;100.00
25560;BME280;13450;49.374;8.584;2023-04-01T06:07:59;98962.97;;;9.02;100.00
25560;BME280;13450;49.374;8.584;2023-04-01T06:10:39;98962.97;;;9.02;100.00
25560;BME280;13450;49.374;8.584;2023-04-01T06:16:07;98966.19;;;9.18;100.00
25560;BME280;13450;49.374;8.584;2023-04-01T06:21:33;98973.94;;;9.26;100.00
25560;BME280;13450;49.374;8.584;2023-04-01T06:27:02;98962.84;;;9.29;100.00
25560;BME280;13450;49.374;8.584;2023-04-01T06:29:42;98971.88;;;9.28;100.00
25560;BME280;13450;49.374;8.584;2023-04-01T06:34:53;98962.06;;;9.22;100.00
25560;BME280;13450;49.374;8.584;2023-04-01T06:40:45;98980.97;;;9.14;100.00
25560;BME280;13450;49.374;8.584;2023-04-01T06:43:47;98955.75;;;9.10;100.00
25560;BME280;13450;49.374;8.584;2023-04-01T06:46:44;98970.72;;;9.11;100.00
25560;BME280;13450;49.374;8.584;2023-04-01T06:49:44;98967.63;;;9.14;100.00
25560;BME280;13450;49.374;8.584;2023-04-01T06:52:26;98962.53;;;9.06;100.00
25560;BME280;13450;49.374;8.584;2023-04-01T06:55:02;98955.97;;;9.01;100.00
25560;BME280;13450;49.374;8.584;2023-04-01T06:57:41;98953.13;;;8.96;100.00
25560;BME280;13450;49.374;8.584;2023-04-01T07:00:19;98958.66;;;8.95;100.00
25560;BME280;13450;49.374;8.584;2023-04-01T07:02:52;98955.59;;;8.91;100.00
25560;BME280;13450;49.374;8.584;2023-04-01T07:05:22;98963.84;;;8.83;100.00
25560;BME280;13450;49.374;8.584;2023-04-01T07:07:52;98958.09;;;8.79;100.00
25560;BME280;13450;49.374;8.584;2023-04-01T07:13:10;98954.00;;;8.83;100.00
25560;BME280;13450;49.374;8.584;2023-04-01T07:15:40;98973.91;;;8.81;100.00
25560;BME280;13450;49.374;8.584;2023-04-01T07:18:15;98965.69;;;8.82;100.00
25560;BME280;13450;49.374;8.584;2023-04-01T07:20:42;98965.69;;;8.89;100.00
25560;BME280;13450;49.374;8.584;2023-04-01T07:23:16;98973.69;;;8.89;100.00
25560;BME280;13450;49.374;8.584;2023-04-01T07:25:46;98973.69;;;8.89;100.00
25560;BME280;13450;49.374;8.584;2023-04-01T07:28:14;98963.59;;;8.91;100.00
25560;BME280;13450;49.374;8.584;2023-04-01T07:33:57;98976.13;;;8.84;100.00
25560;BME280;13450;49.374;8.584;2023-04-01T07:42:01;98987.25;;;8.81;100.00
25560;BME280;13450;49.374;8.584;2023-04-01T07:47:23;98975.94;;;8.79;100.00
25560;BME280;13450;49.374;8.584;2023-04-01T07:50:28;98987.81;;;8.89;100.00
25560;BME280;13450;49.374;8.584;2023-04-01T07:55:50;98984.94;;;8.98;100.00
25560;BME280;13450;49.374;8.584;2023-04-01T08:04:04;98976.03;;;9.11;100.00
25560;BME280;13450;49.374;8.584;2023-04-01T08:06:47;98980.78;;;9.09;100.00
25560;BME280;13450;49.374;8.584;2023-04-01T08:14:59;98989.97;;;9.26;100.00
25560;BME280;13450;49.374;8.584;2023-04-01T08:17:32;98992.44;;;9.28;100.00
25560;BME280;13450;49.374;8.584;2023-04-01T08:20:32;99003.44;;;9.45;100.00
25560;BME280;13450;49.374;8.584;2023-04-01T08:23:10;98987.81;;;9.42;100.00
25560;BME280;13450;49.374;8.584;2023-04-01T08:25:39;98991.25;;;9.56;100.00
25560;BME280;13450;49.374;8.584;2023-04-01T08:28:15;98991.66;;;9.92;100.00
25560;BME280;13450;49.374;8.584;2023-04-01T08:30:47;98994.94;;;9.94;100.00
25560;BME280;13450;49.374;8.584;2023-04-01T08:33:41;98997.69;;;9.80;100.00
25560;BME280;13450;49.374;8.584;2023-04-01T08:36:17;98987.19;;;9.86;100.00
25560;BME280;13450;49.374;8.584;2023-04-01T08:38:47;99023.44;;;9.68;100.00
25560;BME280;13450;49.374;8.584;2023-04-01T08:52:43;98992.34;;;9.48;100.00
25560;BME280;13450;49.374;8.584;2023-04-01T08:55:37;98995.59;;;9.50;100.00
25560;BME280;13450;49.374;8.584;2023-04-01T08:58:37;99001.13;;;9.55;100.00
25560;BME280;13450;49.374;8.584;2023-04-01T09:08:01;99018.31;;;9.66;100.00
25560;BME280;13450;49.374;8.584;2023-04-01T09:10:11;99012.69;;;9.81;100.00
25560;BME280;13450;49.374;8.584;2023-04-01T09:21:02;99005.63;;;9.94;100.00
25560;BME280;13450;49.374;8.584;2023-04-01T09:29:40;99015.84;;;10.04;100.00
25560;BME280;13450;49.374;8.584;2023-04-01T09:35:22;99018.53;;;10.04;100.00
25560;BME280;13450;49.374;8.584;2023-04-01T09:40:56;99010.84;;;9.82;100.00
25560;BME280;13450;49.374;8.584;2023-04-01T09:57:38;99037.84;;;9.67;100.00
25560;BME280;13450;49.374;8.584;2023-04-01T10:11:57;99036.22;;;9.66;100.00
25560;BME280;13450;49.374;8.584;2023-04-01T10:14:45;99029.59;;;9.75;100.00
25560;BME280;13450;49.374;8.584;2023-04-01T10:20:12;99042.94;;;9.75;100.00
25560;BME280;13450;49.374;8.584;2023-04-01T10:28:33;99043.13;;;9.80;100.00
25560;BME280;13450;49.374;8.584;2023-04-01T10:31:41;99045.94;;;9.86;100.00
25560;BME280;13450;49.374;8.584;2023-04-01T10:46:01;99047.19;;;9.83;100.00
25560;BME280;13450;49.374;8.584;2023-04-01T10:51:17;99045.00;;;10.05;100.00
25560;BME280;13450;49.374;8.584;2023-04-01T10:54:17;99043.31;;;10.11;100.00
25560;BME280;13450;49.374;8.584;2023-04-01T10:57:02;99044.75;;;10.14;100.00
25560;BME280;13450;49.374;8.584;2023-04-01T11:11:01;99054.06;;;10.04;100.00
25560;BME280;13450;49.374;8.584;2023-04-01T11:28:09;99063.19;;;9.90;100.00
25560;BME280;13450;49.374;8.584;2023-04-01T11:33:34;99066.03;;;9.95;100.00
25560;BME280;13450;49.374;8.584;2023-04-01T11:38:55;99058.19;;;10.00;100.00
25560;BME280;13450;49.374;8.584;2023-04-01T11:41:37;99069.06;;;10.05;100.00
25560;BME280;13450;49.374;8.584;2023-04-01T11:44:21;99082.47;;;9.99;100.00
25560;BME280;13450;49.374;8.584;2023-04-01T12:06:48;99076.47;;;10.36;100.00
25560;BME280;13450;49.374;8.584;2023-04-01T12:10:11;99098.66;;;10.43;100.00
25560;BME280;13450;49.374;8.584;2023-04-01T12:29:38;99091.19;;;10.52;100.00
25560;BME280;13450;49.374;8.584;2023-04-01T12:34:55;99095.75;;;10.51;100.00
25560;BME280;13450;49.374;8.584;2023-04-01T12:45:49;99099.59;;;10.55;100.00
25560;BME280;13450;49.374;8.584;2023-04-01T12:51:26;99096.69;;;10.82;100.00
25560;BME280;13450;49.374;8.584;2023-04-01T12:54:12;99097.91;;;10.86;100.00
25560;BME280;13450;49.374;8.584;2023-04-01T13:02:40;99108.53;;;10.93;100.00
25560;BME280;13450;49.374;8.584;2023-04-01T13:05:36;99101.59;;;11.11;100.00
25560;BME280;13450;49.374;8.584;2023-04-01T13:08:16;99113.72;;;11.14;100.00
25560;BME280;13450;49.374;8.584;2023-04-01T13:16:45;99110.50;;;11.05;100.00
25560;BME280;13450;49.374;8.584;2023-04-01T13:19:16;99128.81;;;10.82;100.00
25560;BME280;13450;49.374;8.584;2023-04-01T13:27:17;99119.59;;;11.04;100.00
25560;BME280;13450;49.374;8.584;2023-04-01T13:37:48;99141.91;;;10.91;100.00
25560;BME280;13450;49.374;8.584;2023-04-01T13:43:34;99142.31;;;10.94;100.00
25560;BME280;13450;49.374;8.584;2023-04-01T13:57:47;99163.44;;;11.03;100.00
25560;BME280;13450;49.374;8.584;2023-04-01T14:00:43;99149.63;;;11.06;100.00
25560;BME280;13450;49.374;8.584;2023-04-01T14:22:29;99163.16;;;10.85;100.00
25560;BME280;13450;49.374;8.584;2023-04-01T14:25:21;99169.72;;;10.90;100.00
25560;BME280;13450;49.374;8.584;2023-04-01T14:27:59;99160.44;;;10.92;100.00
25560;BME280;13450;49.374;8.584;2023-04-01T14:30:46;99166.66;;;10.86;100.00
25560;BME280;13450;49.374;8.584;2023-04-01T14:47:28;99188.38;;;10.71;100.00
25560;BME280;13450;49.374;8.584;2023-04-01T14:50:11;99194.00;;;10.63;100.00
25560;BME280;13450;49.374;8.584;2023-04-01T14:52:43;99192.94;;;10.64;100.00
25560;BME280;13450;49.374;8.584;2023-04-01T14:55:25;99192.75;;;10.65;100.00
25560;BME280;13450;49.374;8.584;2023-04-01T14:58:00;99197.28;;;10.65;100.00
25560;BME280;13450;49.374;8.584;2023-04-01T15:00:47;99190.13;;;10.58;100.00
25560;BME280;13450;49.374;8.584;2023-04-01T15:03:26;99198.13;;;10.58;100.00
25560;BME280;13450;49.374;8.584;2023-04-01T15:08:56;99200.63;;;10.53;100.00
25560;BME280;13450;49.374;8.584;2023-04-01T15:19:23;99204.75;;;10.56;100.00
25560;BME280;13450;49.374;8.584;2023-04-01T15:37:59;99198.31;;;10.64;100.00
25560;BME280;13450;49.374;8.584;2023-04-01T15:40:53;99217.03;;;10.64;100.00
25560;BME280;13450;49.374;8.584;2023-04-01T15:43:40;99211.00;;;10.75;100.00
25560;BME280;13450;49.374;8.584;2023-04-01T15:51:41;99209.09;;;10.82;100.00
25560;BME280;13450;49.374;8.584;2023-04-01T15:54:27;99219.50;;;10.65;100.00
25560;BME280;13450;49.374;8.584;2023-04-01T16:00:06;99247.88;;;10.66;100.00
25560;BME280;13450;49.374;8.584;2023-04-01T16:03:01;99225.22;;;10.69;100.00
25560;BME280;13450;49.374;8.584;2023-04-01T16:11:24;99230.50;;;10.82;100.00
25560;BME280;13450;49.374;8.584;2023-04-01T16:24:53;99241.28;;;10.69;100.00
25560;BME280;13450;49.374;8.584;2023-04-01T16:27:43;99252.47;;;10.59;100.00
25560;BME280;13450;49.374;8.584;2023-04-01T16:33:10;99257.22;;;10.50;100.00
25560;BME280;13450;49.374;8.584;2023-04-01T16:41:31;99260.34;;;10.47;100.00
25560;BME280;13450;49.374;8.584;2023-04-01T16:44:10;99248.41;;;10.43;100.00
25560;BME280;13450;49.374;8.584;2023-04-01T16:52:04;99261.78;;;10.43;100.00
25560;BME280;13450;49.374;8.584;2023-04-01T16:54:47;99264.03;;;10.39;100.00
25560;BME280;13450;49.374;8.584;2023-04-01T16:57:29;99276.41;;;10.40;100.00
25560;BME280;13450;49.374;8.584;2023-04-01T17:00:15;99274.72;;;10.39;100.00
25560;BME280;13450;49.374;8.584;2023-04-01T17:02:47;99279.06;;;10.40;100.00
25560;BME280;13450;49.374;8.584;2023-04-01T17:05:15;99274.34;;;10.36;100.00
25560;BME280;13450;49.374;8.584;2023-04-01T17:13:15;99290.84;;;10.19;100.00
25560;BME280;13450;49.374;8.584;2023-04-01T17:16:20;99297.88;;;10.13;100.00
25560;BME280;13450;49.374;8.584;2023-04-01T17:26:52;99303.00;;;10.08;100.00
25560;BME280;13450;49.374;8.584;2023-04-01T17:29:29;99306.91;;;10.05;100.00
25560;BME280;13450;49.374;8.584;2023-04-01T17:32:27;99311.47;;;10.05;100.00
25560;BME280;13450;49.374;8.584;2023-04-01T17:35:13;99310.63;;;10.04;100.00
25560;BME280;13450;49.374;8.584;2023-04-01T17:37:57;99315.97;;;10.04;100.00
25560;BME280;13450;49.374;8.584;2023-04-01T17:40:44;99317.63;;;9.99;100.00
25560;BME280;13450;49.374;8.584;2023-04-01T17:49:05;99321.75;;;9.94;100.00
25560;BME280;13450;49.374;8.584;2023-04-01T17:54:38;99332.03;;;9.91;100.00
25560;BME280;13450;49.374;8.584;2023-04-01T17:57:23;99343.97;;;9.88;100.00
25560;BME280;13450;49.374;8.584;2023-04-01T18:08:13;99354.06;;;9.79;100.00
25560;BME280;13450;49.374;8.584;2023-04-01T18:21:52;99377.66;;;9.69;100.00
25560;BME280;13450;49.374;8.584;2023-04-01T18:24:42;99377.66;;;9.69;100.00
25560;BME280;13450;49.374;8.584;2023-04-01T18:27:31;99375.41;;;9.66;100.00
25560;BME280;13450;49.374;8.584;2023-04-01T18:30:13;99382.00;;;9.63;100.00
25560;BME280;13450;49.374;8.584;2023-04-01T18:32:51;99387.09;;;9.58;100.00
25560;BME280;13450;49.374;8.584;2023-04-01T18:38:35;99397.38;;;9.41;100.00
25560;BME280;13450;49.374;8.584;2023-04-01T18:49:26;99412.28;;;9.15;100.00
25560;BME280;13450;49.374;8.584;2023-04-01T18:51:57;99417.41;;;9.10;100.00
25560;BME280;13450;49.374;8.584;2023-04-01T18:54:27;99421.50;;;9.06;100.00
25560;BME280;13450;49.374;8.584;2023-04-01T18:57:27;99439.13;;;9.00;100.00
25560;BME280;13450;49.374;8.584;2023-04-01T18:59:57;99439.09;;;8.93;100.00
25560;BME280;13450;49.374;8.584;2023-04-01T19:02:41;99432.94;;;8.86;100.00
25560;BME280;13450;49.374;8.584;2023-04-01T19:05:12;99438.84;;;8.81;100.00
25560;BME280;13450;49.374;8.584;2023-04-01T19:07:47;99439.88;;;8.80;100.00
25560;BME280;13450;49.374;8.584;2023-04-01T19:10:45;99440.69;;;8.81;100.00
25560;BME280;13450;49.374;8.584;2023-04-01T19:18:57;99458.34;;;8.82;100.00
25560;BME280;13450;49.374;8.584;2023-04-01T19:21:44;99450.97;;;8.84;100.00
25560;BME280;13450;49.374;8.584;2023-04-01T19:27:29;99447.06;;;8.86;100.00
25560;BME280;13450;49.374;8.584;2023-04-01T19:36:28;99446.88;;;8.88;100.00
25560;BME280;13450;49.374;8.584;2023-04-01T19:39:15;99452.22;;;8.88;100.00
25560;BME280;13450;49.374;8.584;2023-04-01T19:41:55;99462.88;;;8.88;100.00
25560;BME280;13450;49.374;8.584;2023-04-01T19:47:12;99468.22;;;8.88;100.00
25560;BME280;13450;49.374;8.584;2023-04-01T19:52:52;99473.16;;;8.91;100.00
25560;BME280;13450;49.374;8.584;2023-04-01T19:55:41;99473.78;;;8.93;100.00
25560;BME280;13450;49.374;8.584;2023-04-01T20:00:57;99483.25;;;8.96;100.00
25560;BME280;13450;49.374;8.584;2023-04-01T20:03:46;99480.59;;;8.96;100.00
25560;BME280;13450;49.374;8.584;2023-04-01T20:08:43;99484.50;;;9.00;100.00
25560;BME280;13450;49.374;8.584;2023-04-01T20:11:37;99488.38;;;8.97;100.00
25560;BME280;13450;49.374;8.584;2023-04-01T20:14:27;99483.03;;;8.97;100.00
25560;BME280;13450;49.374;8.584;2023-04-01T20:19:41;99492.47;;;8.93;100.00
25560;BME280;13450;49.374;8.584;2023-04-01T20:22:20;99496.34;;;8.90;100.00
25560;BME280;13450;49.374;8.584;2023-04-01T20:24:51;99498.22;;;8.90;100.00
25560;BME280;13450;49.374;8.584;2023-04-01T20:27:21;99505.16;;;8.84;100.00
25560;BME280;13450;49.374;8.584;2023-04-01T20:30:23;99497.34;;;8.83;100.00
25560;BME280;13450;49.374;8.584;2023-04-01T20:35:59;99507.78;;;8.77;100.00
25560;BME280;13450;49.374;8.584;2023-04-01T20:39:26;99517.00;;;8.75;100.00
25560;BME280;13450;49.374;8.584;2023-04-01T20:49:39;99530.28;;;8.68;100.00
25560;BME280;13450;49.374;8.584;2023-04-01T20:57:42;99530.47;;;8.67;100.00
25560;BME280;13450;49.374;8.584;2023-04-01T21:03:19;99532.97;;;8.68;100.00
25560;BME280;13450;49.374;8.584;2023-04-01T21:06:15;99533.97;;;8.67;100.00
25560;BME280;13450;49.374;8.584;2023-04-01T21:09:05;99539.94;;;8.69;100.00
25560;BME280;13450;49.374;8.584;2023-04-01T21:23:14;99541.53;;;8.63;100.00
25560;BME280;13450;49.374;8.584;2023-04-01T21:28:29;99555.09;;;8.62;100.00
25560;BME280;13450;49.374;8.584;2023-04-01T21:31:05;99556.69;;;8.56;100.00
25560;BME280;13450;49.374;8.584;2023-04-01T21:39:15;99562.53;;;8.51;100.00
25560;BME280;13450;49.374;8.584;2023-04-01T22:00:42;99587.31;;;8.45;100.00
25560;BME280;13450;49.374;8.584;2023-04-01T22:03:36;99584.66;;;8.45;100.00
25560;BME280;13450;49.374;8.584;2023-04-01T22:08:45;99589.97;;;8.45;100.00
25560;BME280;13450;49.374;8.584;2023-04-01T22:11:22;99594.28;;;8.46;100.00